Time;durP1;ratioP1;P1;durP2;ratioP2;P2;SDS_P1;SDS_P2;PMS_P1;PMS_P2;Temp;Humidity;BMP_temperature;BMP_pressure;BME280_temperature;BME280_humidity;BME280_pressure;Samples;Min_cycle;Max_cycle;Signal;HPM_P1;HPM_P2
2023/03/16 00:00:15;;;;;;;10.07;7.35;;;;;;;10.25;79.52;100360.88;4976850;28;20034;-86
2023/03/16 00:02:41;;;;;;;11.43;7.88;;;;;;;10.45;79.59;100394.91;5008662;28;20074;-86
2023/03/16 00:05:11;;;;;;;11.57;7.80;;;;;;;10.65;79.19;100417.66;4975948;28;20034;-85
2023/03/16 00:07:37;;;;;;;9.52;7.43;;;;;;;10.46;79.06;100396.72;4987433;28;20029;-86
2023/03/16 00:10:04;;;;;;;10.85;7.35;;;;;;;10.52;79.18;100403.13;5002312;28;20034;-87
2023/03/16 00:12:33;;;;;;;10.13;7.03;;;;;;;10.55;79.40;100410.19;4972015;28;20411;-86
2023/03/16 00:14:59;;;;;;;9.95;7.38;;;;;;;10.61;79.58;100420.94;4992021;28;20042;-87
2023/03/16 00:17:25;;;;;;;;;;;;;;;10.65;79.35;100424.59;4992426;28;20518;-87
2023/03/16 00:19:56;;;;;;;10.68;7.32;;;;;;;10.57;79.08;100405.94;4998968;28;19913;-88
2023/03/16 00:22:29;;;;;;;10.88;7.25;;;;;;;10.29;79.53;100356.72;4979926;28;20459;-87
2023/03/16 00:24:55;;;;;;;10.05;7.03;;;;;;;10.38;79.15;100381.56;4984912;28;20061;-87
2023/03/16 00:27:21;;;;;;;;;;;;;;;10.62;79.63;100414.00;4989141;28;20023;-86
2023/03/16 00:29:48;;;;;;;10.95;6.75;;;;;;;10.37;79.38;100373.66;4992476;28;19921;-87
2023/03/16 00:32:18;;;;;;;10.95;7.25;;;;;;;10.60;79.45;100411.31;4990803;28;20117;-87
2023/03/16 00:34:45;;;;;;;11.98;7.57;;;;;;;10.59;79.27;100406.91;5001670;28;20142;-87
2023/03/16 00:37:14;;;;;;;10.40;7.28;;;;;;;10.56;79.19;100393.69;4992849;28;20042;-87
2023/03/16 00:39:44;;;;;;;11.00;7.30;;;;;;;10.36;79.62;100370.16;4974755;28;20041;-87
2023/03/16 00:42:11;;;;;;;10.90;7.10;;;;;;;10.47;79.36;100388.03;4993313;28;20066;-86
2023/03/16 00:44:37;;;;;;;12.30;7.10;;;;;;;10.62;79.23;100408.78;4994114;28;20027;-87
2023/03/16 00:47:05;;;;;;;9.70;7.30;;;;;;;10.53;79.24;100399.69;4994204;28;20031;-87
2023/03/16 00:49:34;;;;;;;11.45;7.60;;;;;;;10.53;78.96;100390.97;4995819;28;20052;-87
2023/03/16 00:52:05;;;;;;;9.55;7.05;;;;;;;10.65;79.28;100408.94;4990859;28;20022;-87
2023/03/16 00:54:32;;;;;;;10.25;7.20;;;;;;;10.63;79.49;100406.25;5004440;28;20533;-87
2023/03/16 00:57:01;;;;;;;12.23;7.18;;;;;;;10.46;79.34;100383.66;4976373;28;20026;-87
2023/03/16 00:59:27;;;;;;;9.82;6.60;;;;;;;10.60;79.31;100398.25;4992688;28;20033;-87
2023/03/16 01:01:54;;;;;;;10.05;7.22;;;;;;;10.47;79.28;100375.00;4980585;28;20146;-87
2023/03/16 01:04:20;;;;;;;9.32;7.03;;;;;;;10.61;79.31;100400.06;5001513;28;20109;-87
2023/03/16 01:06:46;;;;;;;10.80;7.82;;;;;;;10.12;78.86;100322.88;4997951;28;20117;-87
2023/03/16 01:09:13;;;;;;;10.27;6.88;;;;;;;10.48;79.35;100379.41;4993445;28;20165;-86
2023/03/16 01:11:41;;;;;;;8.85;6.60;;;;;;;10.17;79.20;100329.19;4993573;28;20041;-87
2023/03/16 01:14:08;;;;;;;11.80;7.32;;;;;;;10.64;78.85;100409.75;4981709;28;20055;-85
2023/03/16 01:16:34;;;;;;;10.65;7.25;;;;;;;10.49;78.92;100389.91;4981019;28;20046;-85
2023/03/16 01:19:00;;;;;;;10.23;7.45;;;;;;;10.24;78.80;100347.75;4993039;28;20045;-85
2023/03/16 01:21:26;;;;;;;11.10;7.07;;;;;;;10.66;79.05;100421.16;4980894;28;20034;-85
2023/03/16 01:23:52;;;;;;;8.02;6.35;;;;;;;10.30;78.84;100364.63;4992137;28;20068;-85
2023/03/16 01:26:19;;;;;;;8.80;6.88;;;;;;;10.32;78.84;100368.22;5004773;28;20061;-87
2023/03/16 01:28:45;;;;;;;10.32;7.15;;;;;;;10.23;78.65;100359.03;4966922;28;20423;-86
2023/03/16 01:31:13;;;;;;;8.30;6.55;;;;;;;10.66;78.97;100427.25;4985628;28;20037;-86
2023/03/16 01:33:40;;;;;;;9.45;6.65;;;;;;;10.62;79.16;100429.66;4982466;28;20515;-86
2023/03/16 01:36:12;;;;;;;10.95;7.07;;;;;;;10.44;79.03;100400.97;4986134;28;20061;-86
2023/03/16 01:38:38;;;;;;;11.40;7.10;;;;;;;10.15;78.95;100369.97;4980521;28;20029;-86
2023/03/16 01:41:05;;;;;;;9.85;7.25;;;;;;;10.63;79.08;100452.34;4997013;28;20030;-86
2023/03/16 01:43:32;;;;;;;9.50;6.93;;;;;;;10.63;79.03;100449.75;4997047;28;20084;-86
2023/03/16 01:46:06;;;;;;;10.93;7.28;;;;;;;10.62;78.93;100458.38;4977787;28;20061;-86
2023/03/16 01:48:37;;;;;;;10.45;7.28;;;;;;;10.43;79.10;100422.66;4997865;28;20033;-86
2023/03/16 01:51:07;;;;;;;10.55;7.20;;;;;;;10.49;78.90;100442.13;5003723;28;20065;-86
2023/03/16 01:53:33;;;;;;;8.55;6.65;;;;;;;10.34;78.82;100418.78;4977836;28;20037;-87
2023/03/16 01:56:02;;;;;;;9.57;7.03;;;;;;;10.54;79.18;100456.31;4986974;28;20431;-86
2023/03/16 01:58:29;;;;;;;9.68;6.80;;;;;;;10.58;78.84;100459.94;4995878;28;20030;-86
2023/03/16 02:00:56;;;;;;;9.30;6.88;;;;;;;10.47;79.01;100435.91;5006782;28;20026;-85
2023/03/16 02:03:23;;;;;;;9.95;7.20;;;;;;;10.46;78.83;100436.75;4983561;28;20112;-85
2023/03/16 02:05:55;;;;;;;10.63;7.22;;;;;;;10.44;78.84;100433.19;5001430;28;20038;-86
2023/03/16 02:08:21;;;;;;;11.25;7.63;;;;;;;10.52;79.32;100454.41;4993314;28;20088;-85
2023/03/16 02:10:47;;;;;;;9.60;7.22;;;;;;;10.37;78.67;100425.84;4993479;28;20035;-86
2023/03/16 02:13:13;;;;;;;10.60;7.68;;;;;;;10.58;79.09;100466.09;4993197;28;20523;-86
2023/03/16 02:15:39;;;;;;;11.30;7.50;;;;;;;10.14;78.96;100393.41;4983296;28;20038;-86
2023/03/16 02:18:06;;;;;;;9.88;6.93;;;;;;;10.57;79.41;100477.31;4982931;28;20414;-86
2023/03/16 02:20:48;;;;;;;10.98;7.40;;;;;;;10.58;79.18;100473.00;4996479;28;20779;-86
2023/03/16 02:23:19;;;;;;;10.10;7.13;;;;;;;10.58;78.88;100476.53;4995575;28;20038;-85
2023/03/16 02:26:04;;;;;;;11.60;7.57;;;;;;;10.60;78.93;100479.19;4993061;28;20113;-85
2023/03/16 02:28:47;;;;;;;10.60;7.57;;;;;;;10.41;78.75;100442.56;4994482;28;20069;-86
2023/03/16 02:31:14;;;;;;;9.35;7.32;;;;;;;10.38;78.86;100446.81;4983517;28;20037;-86
2023/03/16 02:33:41;;;;;;;10.73;7.57;;;;;;;10.53;78.72;100467.56;4993893;28;20018;-86
2023/03/16 02:36:07;;;;;;;11.18;7.22;;;;;;;10.56;78.81;100478.16;4993895;28;20046;-86
2023/03/16 02:38:34;;;;;;;10.38;7.15;;;;;;;10.15;78.83;100414.31;4993111;28;20034;-85
2023/03/16 02:41:20;;;;;;;11.30;7.72;;;;;;;10.60;79.03;100489.63;4987589;28;20125;-85
2023/03/16 02:43:51;;;;;;;9.70;7.30;;;;;;;10.58;78.90;100481.75;4976308;28;20035;-85
2023/03/16 02:46:18;;;;;;;11.85;7.60;;;;;;;10.12;78.70;100410.69;4976647;28;20510;-86
2023/03/16 02:48:48;;;;;;;10.85;7.35;;;;;;;10.47;78.83;100467.25;4977974;28;20058;-85
2023/03/16 02:51:14;;;;;;;9.98;6.93;;;;;;;10.57;79.08;100486.88;5002607;28;20077;-85
2023/03/16 02:53:39;;;;;;;8.75;7.28;;;;;;;10.53;78.72;100471.88;4992458;28;20026;-85
2023/03/16 02:56:05;;;;;;;9.20;6.85;;;;;;;10.46;79.05;100469.81;5008150;28;20062;-86
2023/03/16 02:58:31;;;;;;;11.95;7.50;;;;;;;10.54;78.94;100485.03;5008064;28;20054;-86
2023/03/16 03:00:57;;;;;;;10.30;7.50;;;;;;;10.58;78.81;100491.28;5001239;28;20483;-86
2023/03/16 03:03:23;;;;;;;10.80;7.40;;;;;;;10.57;78.91;100493.00;4983204;28;20014;-85
2023/03/16 03:05:49;;;;;;;10.40;6.70;;;;;;;10.26;78.75;100440.94;4995952;28;20069;-84
2023/03/16 03:08:15;;;;;;;9.40;6.75;;;;;;;10.25;78.68;100441.78;4995764;28;20030;-85
2023/03/16 03:10:40;;;;;;;11.95;7.78;;;;;;;10.54;78.74;100479.81;4993940;28;20026;-84
2023/03/16 03:13:06;;;;;;;10.52;7.15;;;;;;;10.56;78.75;100492.91;4991365;28;20029;-85
2023/03/16 03:15:33;;;;;;;10.55;7.25;;;;;;;10.43;79.27;100480.97;4995395;28;20491;-84
2023/03/16 03:17:59;;;;;;;10.27;7.25;;;;;;;10.02;78.96;100406.72;4995716;28;20029;-85
2023/03/16 03:20:24;;;;;;;10.32;6.97;;;;;;;10.16;79.08;100439.59;4995317;28;20439;-84
2023/03/16 03:22:51;;;;;;;9.52;6.90;;;;;;;10.55;78.69;100494.63;4979230;28;20438;-85
2023/03/16 03:25:18;;;;;;;11.32;7.13;;;;;;;10.55;78.98;100496.34;4978854;28;20030;-84
2023/03/16 03:27:44;;;;;;;9.75;7.15;;;;;;;10.54;78.76;100490.25;4995226;28;20091;-85
2023/03/16 03:30:19;;;;;;;11.10;7.47;;;;;;;10.57;79.13;100495.59;4983990;28;20464;-84
2023/03/16 03:32:44;;;;;;;10.27;6.88;;;;;;;10.58;78.66;100497.41;4992005;28;20042;-86
2023/03/16 03:35:12;;;;;;;10.88;7.13;;;;;;;10.57;78.96;100494.72;4982594;28;20040;-87
2023/03/16 03:37:41;;;;;;;9.55;6.80;;;;;;;10.57;78.66;100500.81;4984775;28;20137;-87
2023/03/16 03:40:11;;;;;;;11.07;7.32;;;;;;;10.55;78.81;100499.84;4982286;28;20483;-85
2023/03/16 03:42:37;;;;;;;9.63;6.75;;;;;;;10.43;78.66;100473.13;4960456;28;20023;-86
2023/03/16 03:45:03;;;;;;;10.50;7.53;;;;;;;10.34;79.00;100470.97;5003585;28;20028;-88
2023/03/16 03:47:29;;;;;;;10.60;7.00;;;;;;;10.52;78.87;100504.94;4994354;28;20045;-86
2023/03/16 03:49:55;;;;;;;9.27;6.72;;;;;;;10.49;79.08;100503.88;4999957;28;20479;-86
2023/03/16 03:52:20;;;;;;;9.73;7.28;;;;;;;10.43;78.73;100494.03;4975341;28;20021;-87
2023/03/16 03:54:46;;;;;;;9.77;6.68;;;;;;;10.54;78.70;100513.75;4987735;28;20430;-87
2023/03/16 03:57:12;;;;;;;9.95;6.82;;;;;;;10.30;78.67;100482.06;4994918;28;20040;-87
2023/03/16 03:59:42;;;;;;;9.60;7.07;;;;;;;10.53;78.44;100529.31;4976880;28;20048;-86
2023/03/16 04:02:12;;;;;;;9.63;7.07;;;;;;;10.47;78.79;100523.78;4997246;28;20034;-86
2023/03/16 04:04:38;;;;;;;9.50;7.18;;;;;;;10.40;79.08;100499.09;4998294;28;20117;-87
2023/03/16 04:07:04;;;;;;;10.27;7.13;;;;;;;10.26;78.87;100471.38;4973890;28;20102;-85
2023/03/16 04:09:32;;;;;;;10.85;7.38;;;;;;;10.28;78.81;100475.84;5008798;28;20041;-85
2023/03/16 04:11:59;;;;;;;10.68;7.43;;;;;;;10.39;79.18;100516.47;4993597;28;20461;-86
2023/03/16 04:14:25;;;;;;;11.43;7.80;;;;;;;10.30;78.95;100500.34;4982733;28;20032;-87
2023/03/16 04:16:51;;;;;;;10.18;7.28;;;;;;;10.39;78.90;100516.47;5000801;28;20035;-85
2023/03/16 04:19:16;;;;;;;10.85;7.30;;;;;;;10.46;79.02;100528.13;4983156;28;20046;-85
2023/03/16 04:21:42;;;;;;;13.20;7.82;;;;;;;10.35;79.26;100516.22;4999330;28;20026;-84
2023/03/16 04:24:07;;;;;;;11.18;7.53;;;;;;;10.50;79.38;100529.19;4992026;28;20038;-86
2023/03/16 04:26:33;;;;;;;11.52;7.78;;;;;;;10.44;79.46;100521.03;5002483;28;20032;-85
2023/03/16 04:28:59;;;;;;;13.38;7.88;;;;;;;10.49;79.13;100530.88;4992173;28;20040;-86
2023/03/16 04:31:25;;;;;;;9.68;7.32;;;;;;;10.27;79.25;100504.50;4992222;28;20161;-85
2023/03/16 04:33:53;;;;;;;12.00;8.15;;;;;;;10.04;79.51;100470.28;4994141;28;20109;-85
2023/03/16 04:36:22;;;;;;;10.35;7.70;;;;;;;10.46;79.01;100545.50;4999123;28;20054;-85
2023/03/16 04:38:49;;;;;;;10.57;7.30;;;;;;;10.46;79.14;100548.13;4993599;28;20025;-86
2023/03/16 04:41:15;;;;;;;8.90;7.18;;;;;;;10.39;79.05;100531.22;4982144;28;20025;-84
2023/03/16 04:43:42;;;;;;;11.63;8.20;;;;;;;10.28;79.10;100522.81;4987004;28;20035;-84
2023/03/16 04:46:08;;;;;;;13.05;8.63;;;;;;;10.44;78.77;100539.31;4980300;28;20030;-85
2023/03/16 04:48:33;;;;;;;;;;;;;;;10.50;78.80;100550.06;4993746;28;20029;-85
2023/03/16 04:51:00;;;;;;;12.98;8.25;;;;;;;10.36;79.19;100537.19;5005178;28;19929;-85
2023/03/16 04:53:26;;;;;;;11.32;7.38;;;;;;;10.25;78.97;100513.97;4988591;28;20033;-85
2023/03/16 04:55:52;;;;;;;;;;;;;;;10.44;79.12;100555.88;4992197;28;20411;-85
2023/03/16 04:58:17;;;;;;;13.13;8.07;;;;;;;10.41;79.02;100557.41;5003199;28;19918;-85
2023/03/16 05:00:44;;;;;;;13.70;8.70;;;;;;;10.36;79.11;100547.63;4988731;28;20034;-84
2023/03/16 05:03:10;;;;;;;13.45;8.27;;;;;;;10.34;78.81;100545.75;5014499;28;20048;-85
2023/03/16 05:05:39;;;;;;;11.85;8.27;;;;;;;10.30;78.84;100535.97;4985815;28;20030;-83
2023/03/16 05:08:05;;;;;;;11.90;8.68;;;;;;;10.38;78.75;100560.78;5007365;28;20069;-83
2023/03/16 05:10:32;;;;;;;11.65;8.48;;;;;;;10.23;79.09;100542.56;4984846;28;20026;-83
2023/03/16 05:12:58;;;;;;;12.18;8.60;;;;;;;10.23;78.83;100541.69;4993621;28;20033;-84
2023/03/16 05:15:24;;;;;;;10.90;7.78;;;;;;;10.38;79.08;100573.81;4999429;28;20415;-82
2023/03/16 05:17:50;;;;;;;13.77;8.48;;;;;;;10.25;79.19;100558.31;4996848;28;20038;-83
2023/03/16 05:20:16;;;;;;;11.45;7.88;;;;;;;10.45;78.91;100590.69;4991318;28;20033;-83
2023/03/16 05:22:43;;;;;;;11.70;8.23;;;;;;;10.36;78.68;100583.28;4993729;28;20041;-83
2023/03/16 05:25:13;;;;;;;12.38;7.90;;;;;;;10.17;78.88;100556.19;4993679;28;20030;-83
2023/03/16 05:27:44;;;;;;;15.15;8.23;;;;;;;10.16;79.09;100553.53;4993685;28;20048;-85
2023/03/16 05:30:10;;;;;;;13.25;8.32;;;;;;;10.37;78.99;100591.19;5004187;28;20037;-86
2023/03/16 05:32:36;;;;;;;11.88;8.50;;;;;;;10.42;78.81;100604.50;4998528;28;20033;-86
2023/03/16 05:35:03;;;;;;;11.38;8.20;;;;;;;10.13;79.08;100545.53;4991864;28;20026;-85
2023/03/16 05:37:30;;;;;;;12.43;8.50;;;;;;;10.36;79.25;100601.56;4987772;28;20077;-84
2023/03/16 05:39:56;;;;;;;;;;;;;;;10.41;79.07;100607.91;5000149;28;20030;-85
2023/03/16 05:42:22;;;;;;;10.93;8.13;;;;;;;10.16;79.00;100577.91;5002442;28;19913;-85
2023/03/16 05:44:48;;;;;;;13.73;8.13;;;;;;;10.26;78.93;100594.91;4999996;28;20029;-84
2023/03/16 05:47:13;;;;;;;12.10;8.10;;;;;;;10.36;78.94;100617.22;4994911;28;20080;-85
2023/03/16 05:49:39;;;;;;;12.10;8.40;;;;;;;10.39;79.11;100633.94;5002043;28;20031;-84
2023/03/16 05:52:05;;;;;;;12.93;8.32;;;;;;;10.33;79.21;100617.06;4991658;28;20061;-85
2023/03/16 05:54:30;;;;;;;13.82;8.88;;;;;;;10.27;79.11;100619.31;4987177;28;20034;-85
2023/03/16 05:56:56;;;;;;;12.88;8.45;;;;;;;10.38;78.66;100631.25;4989229;28;20550;-85
2023/03/16 05:59:21;;;;;;;12.43;7.80;;;;;;;10.11;79.11;100592.41;5007950;28;20030;-85
2023/03/16 06:01:49;;;;;;;12.63;8.55;;;;;;;10.18;79.24;100602.34;5009293;28;20030;-85
2023/03/16 06:04:14;;;;;;;10.65;7.47;;;;;;;10.41;78.84;100643.56;5011897;28;20056;-86
2023/03/16 06:06:40;;;;;;;11.48;8.32;;;;;;;10.14;78.85;100594.28;5008932;28;20026;-85
2023/03/16 06:09:06;;;;;;;12.30;8.05;;;;;;;10.15;78.57;100586.53;4977661;28;20042;-84
2023/03/16 06:11:32;;;;;;;11.50;8.13;;;;;;;10.29;79.17;100628.13;4995467;28;20026;-85
2023/03/16 06:13:59;;;;;;;12.57;8.32;;;;;;;10.42;78.94;100648.88;5010187;28;20045;-86
2023/03/16 06:16:24;;;;;;;13.55;9.00;;;;;;;9.87;78.94;100552.88;4968487;28;20570;-85
2023/03/16 06:18:50;;;;;;;10.98;8.32;;;;;;;10.22;78.72;100612.94;4991011;28;20040;-85
2023/03/16 06:21:16;;;;;;;11.75;8.70;;;;;;;10.33;78.80;100631.00;5009002;28;20048;-86
2023/03/16 06:23:41;;;;;;;13.25;8.10;;;;;;;10.33;78.61;100630.13;5008158;28;20029;-84
2023/03/16 06:26:07;;;;;;;12.50;8.77;;;;;;;10.31;78.81;100637.84;5008431;28;20030;-85
2023/03/16 06:28:33;;;;;;;12.15;8.25;;;;;;;9.99;78.57;100583.94;5009698;28;20032;-84
2023/03/16 06:30:58;;;;;;;13.57;8.98;;;;;;;10.02;79.18;100591.03;5005507;28;20577;-85
2023/03/16 06:33:24;;;;;;;13.88;8.52;;;;;;;10.30;78.75;100632.56;4992559;28;20030;-85
2023/03/16 06:35:50;;;;;;;18.83;9.52;;;;;;;10.45;79.10;100661.19;4991397;28;20034;-84
2023/03/16 06:38:18;;;;;;;15.57;9.45;;;;;;;10.44;79.08;100662.91;4994184;28;20088;-84
2023/03/16 06:40:44;;;;;;;17.40;9.80;;;;;;;10.44;78.89;100669.84;4995631;28;20052;-86
2023/03/16 06:43:10;;;;;;;14.75;9.45;;;;;;;10.16;79.04;100623.97;4993352;28;20713;-84
2023/03/16 06:45:36;;;;;;;17.20;10.43;;;;;;;10.19;79.20;100631.94;4991634;28;20113;-84
2023/03/16 06:48:02;;;;;;;18.50;9.50;;;;;;;9.99;79.25;100604.81;5002746;28;20121;-85
2023/03/16 06:50:28;;;;;;;14.18;9.35;;;;;;;10.21;79.29;100658.13;5003841;28;20034;-83
2023/03/16 06:52:53;;;;;;;17.08;9.98;;;;;;;9.94;79.11;100608.88;4998337;28;20112;-85
2023/03/16 06:55:19;;;;;;;17.75;9.85;;;;;;;10.36;79.00;100688.56;5000294;28;20034;-85
2023/03/16 06:57:45;;;;;;;14.90;9.80;;;;;;;10.25;79.25;100668.81;5007382;28;20076;-85
2023/03/16 07:00:14;;;;;;;15.45;9.23;;;;;;;10.04;79.21;100636.34;4988871;28;20057;-85
2023/03/16 07:02:48;;;;;;;15.77;10.38;;;;;;;10.03;78.94;100642.38;4992699;28;20038;-86
2023/03/16 07:05:16;;;;;;;17.95;10.60;;;;;;;10.22;79.37;100672.97;5011536;28;20875;-85
2023/03/16 07:07:42;;;;;;;16.38;10.27;;;;;;;10.02;79.13;100645.81;5006034;28;20435;-85
2023/03/16 07:10:12;;;;;;;13.98;9.68;;;;;;;10.36;79.10;100709.47;4994051;28;20034;-85
2023/03/16 07:13:03;;;;;;;14.98;10.05;;;;;;;10.37;78.89;100716.50;4996783;28;20034;-86
2023/03/16 07:15:28;;;;;;;16.02;10.63;;;;;;;10.03;78.69;100669.34;5007296;28;20562;-85
2023/03/16 07:17:54;;;;;;;15.43;9.82;;;;;;;10.14;78.77;100675.19;4977230;28;20147;-83
2023/03/16 07:20:20;;;;;;;15.23;10.13;;;;;;;10.12;78.84;100675.09;4994878;28;20041;-85
2023/03/16 07:22:56;;;;;;;16.88;10.35;;;;;;;10.32;79.02;100722.28;4996309;28;20092;-85
2023/03/16 07:25:21;;;;;;;14.85;10.45;;;;;;;9.91;79.13;100659.16;4971411;28;20395;-85
2023/03/16 07:27:48;;;;;;;14.38;10.10;;;;;;;10.21;78.78;100694.66;5008010;28;20029;-88
2023/03/16 07:34:25;;;;;;;15.73;10.25;;;;;;;10.38;78.73;100726.09;5011568;28;20108;-87
2023/03/16 07:41:17;;;;;;;14.60;9.95;;;;;;;10.36;78.81;100738.19;4939415;29;20046;-90
2023/03/16 07:43:43;;;;;;;19.35;11.57;;;;;;;9.87;78.76;100662.41;4959256;28;20049;-87
2023/03/16 07:46:12;;;;;;;17.00;10.95;;;;;;;10.28;78.70;100733.31;5009753;28;20550;-90
2023/03/16 07:48:39;;;;;;;16.98;10.85;;;;;;;10.19;79.09;100712.84;4990672;28;20034;-88
2023/03/16 07:51:05;;;;;;;16.33;10.77;;;;;;;10.23;78.58;100725.25;4991587;28;20088;-87
2023/03/16 07:53:31;;;;;;;16.85;11.05;;;;;;;10.12;79.13;100710.72;4995907;28;20025;-89
2023/03/16 07:56:00;;;;;;;14.68;10.48;;;;;;;10.19;78.72;100720.66;4998153;28;20033;-90
2023/03/16 07:58:26;;;;;;;16.73;11.07;;;;;;;10.05;78.79;100692.91;4992074;28;20018;-89
2023/03/16 08:00:57;;;;;;;17.67;11.63;;;;;;;10.16;78.69;100718.81;4999299;28;20029;-91
2023/03/16 08:03:27;;;;;;;16.58;10.85;;;;;;;10.28;78.74;100739.44;4993213;28;20032;-89
2023/03/16 08:05:55;;;;;;;15.98;10.80;;;;;;;10.22;78.64;100726.03;4974835;28;20038;-90
2023/03/16 08:08:21;;;;;;;16.80;10.88;;;;;;;10.31;78.51;100751.81;5009983;28;20033;-87
2023/03/16 08:10:53;;;;;;;;;;;;;;;10.33;78.83;100752.78;4990244;28;20038;-88
2023/03/16 08:13:19;;;;;;;17.45;11.00;;;;;;;10.32;78.64;100761.41;4991690;28;19964;-87
2023/03/16 08:15:46;;;;;;;16.50;11.02;;;;;;;10.07;78.66;100720.88;5010046;28;20049;-87
2023/03/16 08:18:11;;;;;;;16.38;11.10;;;;;;;10.33;78.66;100765.84;4994415;28;20052;-87
2023/03/16 08:20:37;;;;;;;19.40;12.00;;;;;;;10.14;78.79;100728.25;4984660;28;20025;-87
2023/03/16 08:23:07;;;;;;;17.85;11.20;;;;;;;10.04;78.99;100722.44;4999274;28;20107;-89
2023/03/16 08:25:33;;;;;;;16.73;11.27;;;;;;;10.30;78.56;100771.78;4993433;28;20399;-88
2023/03/16 08:27:58;;;;;;;18.52;11.85;;;;;;;10.14;78.87;100754.34;5010005;28;20034;-88
2023/03/16 08:30:25;;;;;;;16.75;11.18;;;;;;;10.11;79.24;100746.34;5007295;28;20517;-87
2023/03/16 08:32:51;;;;;;;18.10;11.38;;;;;;;10.30;79.16;100782.22;4991548;28;20137;-88
2023/03/16 08:35:16;;;;;;;19.35;11.63;;;;;;;10.18;78.94;100761.53;4992768;28;20116;-87
2023/03/16 08:37:45;;;;;;;18.38;11.98;;;;;;;10.33;78.77;100781.50;4979903;28;20049;-85
2023/03/16 08:40:14;;;;;;;19.38;11.68;;;;;;;10.01;78.56;100722.25;5002517;28;20510;-85
2023/03/16 08:42:40;;;;;;;18.88;12.60;;;;;;;10.14;78.76;100748.25;4998811;28;20122;-84
2023/03/16 08:45:10;;;;;;;18.58;11.50;;;;;;;10.26;78.75;100771.47;4998375;28;20239;-86
2023/03/16 08:47:36;;;;;;;22.65;12.43;;;;;;;10.28;78.31;100778.56;4992706;28;20510;-87
2023/03/16 08:50:04;;;;;;;19.35;12.27;;;;;;;10.33;78.34;100765.84;5004212;28;20030;-85
2023/03/16 08:52:32;;;;;;;22.77;13.15;;;;;;;10.37;78.74;100794.81;4974787;28;20416;-86
2023/03/16 08:54:58;;;;;;;18.33;11.85;;;;;;;10.24;79.13;100770.50;4974733;28;20037;-86
2023/03/16 08:57:24;;;;;;;18.08;11.10;;;;;;;10.29;78.54;100774.28;4982333;28;20050;-85
2023/03/16 08:59:50;;;;;;;19.48;12.32;;;;;;;10.27;79.13;100792.47;4996611;28;20177;-86
2023/03/16 09:02:15;;;;;;;19.13;12.02;;;;;;;10.36;79.25;100798.22;4991426;28;20061;-87
2023/03/16 09:04:41;;;;;;;16.98;11.15;;;;;;;10.28;79.33;100783.78;4991386;28;20069;-86
2023/03/16 09:07:07;;;;;;;19.30;12.32;;;;;;;10.38;79.38;100800.91;4982589;28;20030;-86
2023/03/16 09:09:34;;;;;;;20.85;11.60;;;;;;;10.41;79.37;100806.28;5006664;28;20507;-87
2023/03/16 09:12:00;;;;;;;19.40;11.63;;;;;;;10.28;79.01;100775.97;4991416;28;20042;-86
2023/03/16 09:14:26;;;;;;;;;;;;;;;10.45;79.41;100804.75;5004806;28;20025;-86
2023/03/16 09:16:51;;;;;;;19.88;11.20;;;;;;;10.16;79.15;100765.78;4995448;28;19925;-87
2023/03/16 09:19:18;;;;;;;21.52;12.55;;;;;;;10.27;79.87;100782.03;4988547;28;20034;-86
2023/03/16 09:21:44;;;;;;;21.02;11.27;;;;;;;10.37;79.37;100791.28;4999293;28;20515;-86
2023/03/16 09:24:10;;;;;;;21.48;12.20;;;;;;;10.35;79.24;100779.84;4990582;28;20034;-86
2023/03/16 09:26:36;;;;;;;15.43;10.43;;;;;;;10.51;79.48;100818.16;4993900;28;20111;-85
2023/03/16 09:29:04;;;;;;;17.33;10.27;;;;;;;10.58;79.31;100817.66;4999726;28;20030;-84
2023/03/16 09:31:32;;;;;;;18.50;11.35;;;;;;;10.58;79.50;100821.19;5009236;28;20109;-85
2023/03/16 09:33:58;;;;;;;15.93;10.20;;;;;;;10.51;79.75;100812.94;5005243;28;20022;-85
2023/03/16 09:36:24;;;;;;;17.63;11.20;;;;;;;10.59;79.40;100817.75;4992690;28;20062;-86
2023/03/16 09:38:50;;;;;;;16.13;10.25;;;;;;;10.59;79.25;100824.69;4987260;28;20030;-85
2023/03/16 09:41:37;;;;;;;15.68;10.65;;;;;;;10.72;78.96;100834.09;4961767;28;20488;-86
2023/03/16 09:44:30;;;;;;;15.70;10.18;;;;;;;10.71;78.52;100834.88;4974043;28;20023;-86
2023/03/16 09:46:59;;;;;;;16.00;9.85;;;;;;;10.73;79.40;100835.88;4983145;28;20476;-86
2023/03/16 09:49:30;;;;;;;17.65;10.25;;;;;;;10.65;79.81;100831.97;4958030;28;20026;-86
2023/03/16 09:52:17;;;;;;;16.60;10.25;;;;;;;10.71;80.36;100833.19;4971451;28;20039;-86
2023/03/16 09:54:55;;;;;;;15.93;10.23;;;;;;;10.62;80.07;100818.72;4981745;28;20057;-84
2023/03/16 09:57:30;;;;;;;16.17;10.10;;;;;;;10.76;80.75;100828.22;4966112;28;20054;-84
2023/03/16 09:59:59;;;;;;;15.48;9.40;;;;;;;10.60;80.71;100813.41;4979435;28;20019;-85
2023/03/16 10:02:59;;;;;;;15.32;9.93;;;;;;;10.76;80.90;100836.06;4951651;28;20038;-85
2023/03/16 10:05:26;;;;;;;13.68;9.27;;;;;;;10.75;80.53;100832.56;4974943;28;20065;-86
2023/03/16 10:08:02;;;;;;;14.95;9.57;;;;;;;10.78;82.17;100840.53;4986319;28;20022;-86
2023/03/16 10:11:05;;;;;;;18.13;10.32;;;;;;;10.80;82.13;100841.53;4974019;28;20022;-85
2023/03/16 10:13:49;;;;;;;17.00;9.35;;;;;;;10.78;81.87;100843.16;4975668;28;20536;-87
2023/03/16 10:16:21;;;;;;;15.02;9.45;;;;;;;10.80;81.50;100844.13;4975067;28;20385;-87
2023/03/16 10:18:57;;;;;;;16.23;9.82;;;;;;;10.75;82.23;100823.78;4985924;28;20031;-88
2023/03/16 10:21:23;;;;;;;17.70;9.50;;;;;;;10.53;82.14;100796.53;4977624;28;20026;-87
2023/03/16 10:23:51;;;;;;;16.20;10.45;;;;;;;10.83;83.43;100847.72;4980728;28;20054;-87
2023/03/16 10:26:30;;;;;;;15.38;9.20;;;;;;;10.84;82.76;100841.66;4958303;28;20405;-88
2023/03/16 10:28:55;;;;;;;14.43;9.23;;;;;;;10.73;83.67;100821.13;4974002;28;20049;-86
2023/03/16 10:31:22;;;;;;;14.32;8.90;;;;;;;10.77;82.99;100830.94;4983653;28;20520;-86
2023/03/16 10:33:48;;;;;;;;;;;;;;;10.90;82.19;100849.84;4978450;28;20026;-86
2023/03/16 10:36:33;;;;;;;15.30;8.68;;;;;;;10.90;82.26;100845.53;4979633;28;20387;-86
2023/03/16 10:39:01;;;;;;;16.88;8.32;;;;;;;10.83;82.16;100830.34;5004675;28;20026;-86
2023/03/16 10:41:32;;;;;;;15.23;9.23;;;;;;;10.89;82.14;100841.13;5003145;28;20475;-86
2023/03/16 10:44:08;;;;;;;13.85;8.90;;;;;;;10.77;83.18;100825.69;4993386;28;20014;-87
2023/03/16 10:46:38;;;;;;;14.02;8.60;;;;;;;10.88;82.58;100835.81;4995926;28;20114;-87
2023/03/16 10:49:04;;;;;;;13.98;8.20;;;;;;;10.89;82.25;100840.22;4991113;28;20029;-87
2023/03/16 10:51:32;;;;;;;11.65;8.05;;;;;;;10.91;83.49;100855.16;5012906;28;20041;-87
2023/03/16 10:54:09;;;;;;;14.60;8.18;;;;;;;10.91;83.69;100849.03;4977148;28;20050;-88
2023/03/16 10:56:37;;;;;;;13.23;8.10;;;;;;;10.77;84.06;100822.16;4989612;28;20097;-87
2023/03/16 10:59:35;;;;;;;13.00;8.57;;;;;;;10.89;83.97;100842.84;4996223;28;20123;-87
2023/03/16 11:02:11;;;;;;;12.35;8.18;;;;;;;10.86;84.31;100854.03;4992832;28;20174;-88
2023/03/16 11:04:37;;;;;;;12.38;8.20;;;;;;;10.71;84.60;100834.88;4978133;28;20548;-88
2023/03/16 11:07:02;;;;;;;13.55;8.40;;;;;;;10.76;84.92;100844.78;5005670;28;20118;-88
2023/03/16 11:09:32;;;;;;;13.23;8.60;;;;;;;10.88;84.21;100860.25;4992924;28;20054;-88
2023/03/16 11:11:59;;;;;;;11.18;7.05;;;;;;;10.76;84.89;100838.66;4993554;28;20093;-88
2023/03/16 11:14:30;;;;;;;11.48;7.85;;;;;;;10.78;84.82;100850.09;4992781;28;20030;-87
2023/03/16 11:17:35;;;;;;;12.57;8.10;;;;;;;10.86;84.32;100842.66;4992908;28;20030;-87
2023/03/16 11:20:16;;;;;;;13.25;7.60;;;;;;;10.87;84.14;100861.03;4965767;28;20158;-87
2023/03/16 11:22:47;;;;;;;13.23;8.23;;;;;;;10.77;84.47;100844.00;4950435;28;20028;-87
2023/03/16 11:25:37;;;;;;;13.55;8.02;;;;;;;10.85;84.64;100861.78;4977657;28;20037;-87
2023/03/16 11:28:11;;;;;;;11.43;7.70;;;;;;;10.88;84.94;100862.84;4985025;28;20081;-88
2023/03/16 11:31:05;;;;;;;12.18;7.22;;;;;;;10.85;85.09;100867.00;5000089;28;20034;-86
2023/03/16 11:33:33;;;;;;;11.30;7.68;;;;;;;10.88;84.67;100864.53;4994115;28;20061;-87